»·PEaware :: WAT415 KINW-KPHX

WAT415 :: KINW-KPHX

FLIGHT INFORMATION

Flight Status: Arrived
Operator:
Walker Air Transport
More flights by this operator :: More flights under this callsign
Pilot: Spencer F. (32151)
Aircraft: CIRRUS SR-22 TURBO
(S22T)
More flights by this aircraft type
Origin: KINW Winslow-Lindbergh Regl
United States
Destination: KPHX Phoenix Sky Harbor Intl
United States
More flights between these airports :: More routes between these airports
Route:
File this flight plan on PilotEdge
Remarks:
Altitude:
(Current/Filed)
10,500ft
Speed:
(Current/Filed)
170kts
Departed: 24-Jan-21 12:20 AM
Arrived: 24-Jan-21 01:08 AM
Distance/Time
Traveled:
225nm/0:48
Distance/Time
To Go:
Arrived

Flight Plot

Page will automatically refresh every two minutes.

Flight plan parsing failed; only flown route is shown


Map Options




Map Legend


Flown Route
Filed Route
Departure Airport
Arrival Airport
Navaid (VOR, NDB)
Fix

Horizontal Profiles

Position Reports

Time Latitude Longitude Heading Altitude Ground
Speed
24-Jan-21 00:15 35.023078 -110.717699 25 4884ft 0kts
24-Jan-21 00:16 35.023112 -110.717640 71 4884ft 4kts
24-Jan-21 00:17 35.021945 -110.714755 118 4878ft 5kts
24-Jan-21 00:18 35.021049 -110.712001 50 4876ft 5kts
24-Jan-21 00:19 35.025156 -110.719400 298 4906ft 109kts
24-Jan-21 00:20 35.021408 -110.749822 181 6705ft 116kts
24-Jan-21 00:21 34.989396 -110.752979 190 8554ft 117kts
24-Jan-21 00:22 34.960093 -110.766786 207 10317ft 104kts
24-Jan-21 00:23 34.932538 -110.786995 211 10507ft 128kts
24-Jan-21 00:24 34.899739 -110.813579 213 10511ft 161kts
24-Jan-21 00:26 34.864489 -110.842882 213 10502ft 167kts
24-Jan-21 00:27 34.826028 -110.874933 213 10501ft 167kts
24-Jan-21 00:28 34.787570 -110.906969 213 10501ft 167kts
24-Jan-21 00:29 34.749115 -110.938959 213 10500ft 166kts
24-Jan-21 00:30 34.710016 -110.971451 213 10500ft 168kts
24-Jan-21 00:31 34.671143 -111.003722 213 10499ft 169kts
24-Jan-21 00:32 34.632696 -111.035601 213 10500ft 169kts
24-Jan-21 00:33 34.593858 -111.067764 213 10500ft 168kts
24-Jan-21 00:34 34.555405 -111.099574 213 10499ft 168kts
24-Jan-21 00:35 34.516808 -111.131468 213 10499ft 168kts
24-Jan-21 00:36 34.477990 -111.163507 212 10499ft 168kts
24-Jan-21 00:37 34.439244 -111.195447 212 10499ft 168kts
24-Jan-21 00:38 34.400565 -111.227301 212 10498ft 168kts
24-Jan-21 00:39 34.362144 -111.258901 212 10498ft 168kts
24-Jan-21 00:40 34.324080 -111.290178 212 10498ft 167kts
24-Jan-21 00:41 34.285428 -111.321896 212 10498ft 167kts
24-Jan-21 00:42 34.247169 -111.353264 212 10498ft 167kts
24-Jan-21 00:43 34.208559 -111.384879 212 10499ft 167kts
24-Jan-21 00:43 34.176167 -111.411375 212 10501ft 167kts
24-Jan-21 00:45 34.130917 -111.448346 212 10503ft 167kts
24-Jan-21 00:46 34.092144 -111.479988 212 10505ft 167kts
24-Jan-21 00:46 34.059658 -111.506470 212 10507ft 169kts
24-Jan-21 00:47 34.020715 -111.538198 212 10505ft 166kts
24-Jan-21 00:48 33.982381 -111.569398 212 10504ft 162kts
24-Jan-21 00:49 33.945133 -111.599659 212 10507ft 160kts
24-Jan-21 00:50 33.907576 -111.630119 212 10501ft 166kts
24-Jan-21 00:51 33.868810 -111.661602 211 9650ft 165kts
24-Jan-21 00:52 33.832629 -111.690912 211 8323ft 151kts
24-Jan-21 00:53 33.798093 -111.718847 213 7013ft 149kts
24-Jan-21 00:54 33.762755 -111.747422 213 5700ft 153kts
24-Jan-21 00:55 33.728200 -111.775310 213 5502ft 149kts
24-Jan-21 00:56 33.693545 -111.803282 213 5482ft 130kts
24-Jan-21 00:57 33.663609 -111.827380 213 5510ft 140kts
24-Jan-21 00:58 33.629587 -111.854779 213 5501ft 148kts
24-Jan-21 00:59 33.593277 -111.884004 214 5010ft 166kts
24-Jan-21 01:00 33.555364 -111.914474 214 4412ft 163kts
24-Jan-21 01:01 33.517898 -111.938544 207 3770ft 156kts
24-Jan-21 01:02 33.485141 -111.975281 226 2979ft 152kts
24-Jan-21 01:03 33.460830 -112.007020 223 2200ft 100kts
24-Jan-21 01:04 33.449920 -112.034152 250 1428ft 91kts
24-Jan-21 01:05 33.437435 -112.044637 162 1497ft 84kts
24-Jan-21 01:06 33.428911 -112.022794 93 1133ft 73kts
24-Jan-21 01:07 33.427944 -112.011081 139 1115ft 2kts
24-Jan-21 01:08 33.427605 -112.010744 337 1115ft 0kts
24-Jan-21 01:09 33.427649 -112.010774 323 1115ft 0kts
24-Jan-21 01:10 33.427649 -112.010774 323 1115ft 0kts
24-Jan-21 01:11 33.427649 -112.010774 323 1115ft 0kts
24-Jan-21 01:12 33.427649 -112.010774 323 1115ft 0kts
24-Jan-21 01:13 33.427649 -112.010774 323 1115ft 0kts
24-Jan-21 01:14 33.427649 -112.010774 323 1115ft 0kts
24-Jan-21 01:15 36.079511 -115.146742 28 2187ft 0kts
24-Jan-21 01:16 36.079511 -115.146742 28 2187ft 0kts
24-Jan-21 01:17 36.079511 -115.146742 28 2187ft 0kts
24-Jan-21 01:18 36.079511 -115.146742 28 2187ft 0kts
24-Jan-21 01:19 36.079511 -115.146742 28 2187ft 0kts
24-Jan-21 01:20 36.079511 -115.146742 28 2187ft 0kts

Navigation Log

Ident Type
Flight plan parsing failed, navigation log unavailable